No particular awareness of the weather is required.    There are no Weather-warnings


Meteo18 Weather Cam more information Meteo18 Weather Cam


Thunder radar more information blitzortung!


Rain radar more information rain snow radar


Visit our other weather sites:

Template documentation
and downloads

And another site



Weather Underground History page Text

Daily Summary for December 2, 2017 Units:  Metric    English   Both
« Previous Day
Next Day »
Daily Weekly Monthly Yearly Custom
  High: Low: Average:
Temperature: 2.0 °C -0.9 °C 0.3 °C
Dew Point: -0.6 °C -2.0 °C -1.2 °C
Humidity: 93 % 83 % 90 %
Wind Speed: 35.4 km/h 0.0 km/h 9.3 km/h
Wind Gust: 37.0 km/h - -
Wind:- - SSW
Pressure: 1028.0 hPa 1021.2 hPa -
Precipitation: 0.3 mm    
Historical Graphs
 
 
Tabular Data for December 2, 2017
Time Temperature Dew Point Pressure Wind Wind Speed Wind Gust Humidity Rainfall Rate (Hourly)
00:12 0.4 °C -0.7 °C 1021.2 hPa NNW 8.0 km/h 17.7 km/h 92 % 0.0 mm
00:32 0.4 °C -0.7 °C 1021.2 hPa North 9.7 km/h 20.9 km/h 92 % 0.0 mm
00:42 0.2 °C -0.8 °C 1021.2 hPa North 8.0 km/h 16.1 km/h 93 % 0.0 mm
00:47 0.2 °C -0.8 °C 1021.2 hPa North 9.7 km/h 17.7 km/h 93 % 0.0 mm
00:52 0.2 °C -0.8 °C 1021.2 hPa NNW 9.7 km/h 17.7 km/h 93 % 0.0 mm
00:57 0.2 °C -0.8 °C 1021.2 hPa North 12.9 km/h 17.7 km/h 93 % 0.0 mm
01:02 0.3 °C -0.7 °C 1021.2 hPa NNE 6.4 km/h 20.9 km/h 93 % 0.0 mm
01:07 0.3 °C -0.7 °C 1021.2 hPa North 14.5 km/h 20.9 km/h 93 % 0.0 mm
01:12 0.2 °C -0.9 °C 1021.2 hPa NNE 8.0 km/h 20.9 km/h 92 % 0.0 mm
01:22 0.2 °C -0.9 °C 1021.2 hPa NNE 12.9 km/h 24.1 km/h 92 % 0.0 mm
01:27 0.2 °C -0.9 °C 1021.2 hPa North 8.0 km/h 24.1 km/h 92 % 0.0 mm
01:32 0.2 °C -0.9 °C 1021.6 hPa ENE 1.6 km/h 24.1 km/h 92 % 0.0 mm
01:37 0.2 °C -0.9 °C 1021.2 hPa North 3.2 km/h 19.3 km/h 92 % 0.0 mm
01:42 0.1 °C -1.0 °C 1021.6 hPa North 11.3 km/h 17.7 km/h 92 % 0.0 mm
01:47 0.1 °C -1.0 °C 1021.6 hPa North 8.0 km/h 17.7 km/h 92 % 0.0 mm
01:57 0.2 °C -0.8 °C 1021.6 hPa NNE 8.0 km/h 17.7 km/h 93 % 0.0 mm
02:02 0.2 °C -0.8 °C 1021.6 hPa North 3.2 km/h 17.7 km/h 93 % 0.0 mm
02:12 0.3 °C -0.7 °C 1021.6 hPa NNE 8.0 km/h 16.1 km/h 93 % 0.0 mm
02:22 0.3 °C -0.7 °C 1021.6 hPa North 1.6 km/h 16.1 km/h 93 % 0.0 mm
02:27 0.3 °C -0.7 °C 1021.6 hPa NNW 8.0 km/h 16.1 km/h 93 % 0.0 mm
02:32 0.3 °C -0.7 °C 1021.6 hPa NNE 8.0 km/h 16.1 km/h 93 % 0.0 mm
02:37 0.3 °C -0.7 °C 1021.9 hPa NNE 8.0 km/h 16.1 km/h 93 % 0.0 mm
02:42 0.3 °C -0.7 °C 1021.9 hPa North 9.7 km/h 14.5 km/h 93 % 0.0 mm
02:47 0.3 °C -0.7 °C 1021.9 hPa NW 1.6 km/h 14.5 km/h 93 % 0.0 mm
02:52 0.3 °C -0.7 °C 1021.9 hPa NNE 4.8 km/h 14.5 km/h 93 % 0.0 mm
02:57 0.3 °C -0.7 °C 1021.9 hPa NW 4.8 km/h 12.9 km/h 93 % 0.0 mm
03:02 0.3 °C -0.7 °C 1021.9 hPa NNW 6.4 km/h 14.5 km/h 93 % 0.0 mm
03:17 0.4 °C -0.6 °C 1021.9 hPa NNE 3.2 km/h 17.7 km/h 93 % 0.0 mm
03:27 0.4 °C -0.6 °C 1021.9 hPa ENE 14.5 km/h 17.7 km/h 93 % 0.0 mm
03:32 0.4 °C -0.6 °C 1021.9 hPa North 9.7 km/h 19.3 km/h 93 % 0.0 mm
03:37 0.4 °C -0.6 °C 1021.9 hPa NNW 6.4 km/h 19.3 km/h 93 % 0.0 mm
03:42 0.4 °C -0.6 °C 1021.9 hPa NNE 12.9 km/h 19.3 km/h 93 % 0.0 mm
03:52 0.4 °C -0.6 °C 1021.9 hPa NNW 11.3 km/h 20.9 km/h 93 % 0.0 mm
03:57 0.4 °C -0.6 °C 1021.9 hPa NNW 12.9 km/h 20.9 km/h 93 % 0.0 mm
04:02 0.4 °C -0.6 °C 1021.9 hPa NE 8.0 km/h 20.9 km/h 93 % 0.0 mm
04:07 0.4 °C -0.6 °C 1021.9 hPa NNE 14.5 km/h 22.5 km/h 93 % 0.0 mm
04:22 0.5 °C -0.6 °C 1021.9 hPa NNE 9.7 km/h 25.7 km/h 92 % 0.0 mm
04:32 0.5 °C -0.6 °C 1021.9 hPa NNE 6.4 km/h 20.9 km/h 92 % 0.0 mm
04:42 0.5 °C -0.6 °C 1022.2 hPa NNE 9.7 km/h 20.9 km/h 92 % 0.0 mm
04:47 0.4 °C -0.6 °C 1021.9 hPa NW 4.8 km/h 14.5 km/h 93 % 0.0 mm
04:57 0.4 °C -0.7 °C 1022.2 hPa NW 6.4 km/h 19.3 km/h 92 % 0.0 mm
05:02 0.4 °C -0.7 °C 1022.2 hPa North 9.7 km/h 19.3 km/h 92 % 0.0 mm
05:12 0.4 °C -0.7 °C 1022.2 hPa North 9.7 km/h 17.7 km/h 92 % 0.0 mm
05:22 0.4 °C -0.7 °C 1022.6 hPa North 1.6 km/h 12.9 km/h 92 % 0.0 mm
05:32 0.4 °C -0.7 °C 1022.6 hPa NE 4.8 km/h 11.3 km/h 92 % 0.0 mm
05:52 0.4 °C -1.0 °C 1022.6 hPa NNE 11.3 km/h 20.9 km/h 90 % 0.0 mm
05:57 0.4 °C -1.0 °C 1022.6 hPa NNE 6.4 km/h 20.9 km/h 90 % 0.0 mm
06:02 0.4 °C -1.0 °C 1022.6 hPa North 8.0 km/h 19.3 km/h 90 % 0.0 mm
06:07 0.4 °C -1.0 °C 1022.6 hPa NNE 3.2 km/h 14.5 km/h 90 % 0.0 mm
06:12 0.4 °C -1.0 °C 1022.6 hPa Calm   14.5 km/h 90 % 0.0 mm
06:17 0.4 °C -0.9 °C 1022.6 hPa Calm   14.5 km/h 91 % 0.0 mm
06:27 0.4 °C -0.9 °C 1022.9 hPa North 6.4 km/h 11.3 km/h 91 % 0.0 mm
06:32 0.4 °C -0.7 °C 1022.9 hPa ENE 3.2 km/h 12.9 km/h 92 % 0.0 mm
06:42 0.4 °C -0.7 °C 1022.9 hPa NNE 3.2 km/h 16.1 km/h 92 % 0.0 mm
06:47 0.3 °C -0.8 °C 1022.9 hPa North 3.2 km/h 16.1 km/h 92 % 0.0 mm
06:52 0.3 °C -0.8 °C 1022.9 hPa NNW 1.6 km/h 16.1 km/h 92 % 0.0 mm
06:57 0.3 °C -0.8 °C 1022.9 hPa North 3.2 km/h 12.9 km/h 92 % 0.0 mm
07:02 0.3 °C -0.8 °C 1022.9 hPa NE 3.2 km/h 16.1 km/h 92 % 0.0 mm
07:12 0.3 °C -0.8 °C 1022.9 hPa NE 4.8 km/h 16.1 km/h 92 % 0.0 mm
07:17 0.3 °C -0.8 °C 1022.9 hPa NNW 3.2 km/h 17.7 km/h 92 % 0.0 mm
07:22 0.3 °C -0.8 °C 1022.9 hPa North 12.9 km/h 17.7 km/h 92 % 0.0 mm
07:37 0.3 °C -1.0 °C 1023.2 hPa NNW 6.4 km/h 17.7 km/h 91 % 0.0 mm
07:42 0.2 °C -1.1 °C 1023.2 hPa NW 4.8 km/h 17.7 km/h 91 % 0.0 mm
07:47 0.2 °C -1.1 °C 1023.2 hPa NNE 8.0 km/h 19.3 km/h 91 % 0.0 mm
07:57 0.2 °C -1.1 °C 1023.2 hPa NE 3.2 km/h 17.7 km/h 91 % 0.0 mm
08:12 0.3 °C -1.0 °C 1023.2 hPa NNW 9.7 km/h 17.7 km/h 91 % 0.0 mm
08:22 0.3 °C -1.0 °C 1023.2 hPa NNE 3.2 km/h 17.7 km/h 91 % 0.0 mm
08:27 0.3 °C -1.1 °C 1023.2 hPa NNE 11.3 km/h 19.3 km/h 90 % 0.0 mm
08:32 0.2 °C -1.2 °C 1023.2 hPa NW 6.4 km/h 19.3 km/h 90 % 0.0 mm
08:37 0.2 °C -1.2 °C 1023.2 hPa ENE 1.6 km/h 19.3 km/h 90 % 0.0 mm
08:42 0.1 °C -1.3 °C 1023.2 hPa NNW 9.7 km/h 17.7 km/h 90 % 0.0 mm
08:47 0.1 °C -1.2 °C 1023.6 hPa WNW 3.2 km/h 17.7 km/h 91 % 0.0 mm
09:02 0.2 °C -1.2 °C 1023.2 hPa NNE 6.4 km/h 19.3 km/h 90 % 0.0 mm
09:17 0.3 °C -1.3 °C 1023.6 hPa NNE 14.5 km/h 20.9 km/h 89 % 0.0 mm
09:22 0.3 °C -1.3 °C 1023.6 hPa NNE 12.9 km/h 25.7 km/h 89 % 0.0 mm
09:42 0.5 °C -1.3 °C 1023.6 hPa NNE 11.3 km/h 25.7 km/h 88 % 0.0 mm
09:47 0.6 °C -1.2 °C 1023.6 hPa NW 9.7 km/h 25.7 km/h 88 % 0.0 mm
09:52 0.6 °C -1.2 °C 1023.6 hPa WNW 4.8 km/h 30.6 km/h 88 % 0.0 mm
09:57 0.5 °C -1.3 °C 1023.6 hPa NNW 16.1 km/h 30.6 km/h 88 % 0.0 mm
10:02 0.5 °C -1.3 °C 1023.9 hPa NW 16.1 km/h 30.6 km/h 88 % 0.0 mm
10:07 0.6 °C -1.2 °C 1023.9 hPa NW 11.3 km/h 29.0 km/h 88 % 0.0 mm
10:12 0.6 °C -1.0 °C 1024.3 hPa NE 8.0 km/h 29.0 km/h 89 % 0.0 mm
10:22 0.5 °C -1.3 °C 1024.3 hPa NNW 17.7 km/h 30.6 km/h 88 % 0.0 mm
10:37 0.4 °C -1.4 °C 1024.3 hPa North 12.9 km/h 32.2 km/h 88 % 0.0 mm
10:42 0.4 °C -1.4 °C 1024.6 hPa NNE 6.4 km/h 25.7 km/h 88 % 0.0 mm
10:57 0.4 °C -1.4 °C 1024.6 hPa North 9.7 km/h 27.4 km/h 88 % 0.0 mm
11:02 0.4 °C -1.4 °C 1024.6 hPa North 9.7 km/h 30.6 km/h 88 % 0.0 mm
11:07 0.5 °C -1.3 °C 1024.6 hPa NNE 14.5 km/h 30.6 km/h 88 % 0.0 mm
11:12 0.6 °C -1.2 °C 1024.6 hPa NE 16.1 km/h 25.7 km/h 88 % 0.0 mm
11:22 0.6 °C -1.3 °C 1024.6 hPa NNE 19.3 km/h 30.6 km/h 87 % 0.0 mm
11:27 0.5 °C -1.4 °C 1024.6 hPa NE 35.4 km/h 35.4 km/h 87 % 0.0 mm
11:52 0.9 °C -1.0 °C 1024.3 hPa NE 11.3 km/h 32.2 km/h 87 % 0.0 mm
11:57 0.9 °C -1.0 °C 1024.3 hPa NNW 9.7 km/h 24.1 km/h 87 % 0.0 mm
12:22 1.0 °C -1.2 °C 1024.3 hPa North 17.7 km/h 22.5 km/h 85 % 0.0 mm
12:27 1.1 °C -1.0 °C 1024.3 hPa NNW 11.3 km/h 27.4 km/h 86 % 0.3 mm
12:42 1.5 °C -0.7 °C 1023.9 hPa NNW 11.3 km/h 29.0 km/h 85 % 0.3 mm
12:47 1.3 °C -1.1 °C 1023.9 hPa North 25.7 km/h 30.6 km/h 84 % 0.3 mm
12:52 1.3 °C -1.1 °C 1023.9 hPa North 14.5 km/h 30.6 km/h 84 % 0.3 mm
13:02 1.5 °C -0.7 °C 1023.9 hPa NNW 6.4 km/h 30.6 km/h 85 % 0.3 mm
13:07 1.6 °C -0.8 °C 1023.9 hPa NE 20.9 km/h 30.6 km/h 84 % 0.3 mm
13:12 1.6 °C -0.8 °C 1023.9 hPa NNE 16.1 km/h 30.6 km/h 84 % 0.3 mm
13:22 1.8 °C -0.6 °C 1023.9 hPa NNE 11.3 km/h 32.2 km/h 84 % 0.0 mm
13:37 1.8 °C -0.8 °C 1023.9 hPa NNE 12.9 km/h 37.0 km/h 83 % 0.0 mm
13:52 1.8 °C -0.6 °C 1024.3 hPa NNW 8.0 km/h 30.6 km/h 84 % 0.0 mm
14:17 1.9 °C -0.7 °C 1023.9 hPa North 17.7 km/h 30.6 km/h 83 % 0.0 mm
14:22 1.8 °C -0.8 °C 1023.9 hPa North 17.7 km/h 30.6 km/h 83 % 0.0 mm
14:27 1.8 °C -0.8 °C 1023.9 hPa NNW 12.9 km/h 30.6 km/h 83 % 0.0 mm
14:37 1.8 °C -0.8 °C 1024.3 hPa NW 8.0 km/h 35.4 km/h 83 % 0.0 mm
14:52 2.0 °C -0.6 °C 1024.3 hPa NNW 14.5 km/h 30.6 km/h 83 % 0.0 mm
14:57 1.9 °C -0.7 °C 1024.3 hPa NNW 16.1 km/h 29.0 km/h 83 % 0.0 mm
15:12 1.6 °C -1.0 °C 1024.3 hPa North 24.1 km/h 35.4 km/h 83 % 0.0 mm
15:17 1.7 °C -0.9 °C 1024.3 hPa NNE 8.0 km/h 35.4 km/h 83 % 0.0 mm
15:22 1.7 °C -0.7 °C 1024.3 hPa NNW 19.3 km/h 35.4 km/h 84 % 0.0 mm
15:27 1.6 °C -0.8 °C 1024.6 hPa North 25.7 km/h 32.2 km/h 84 % 0.0 mm
15:32 1.4 °C -1.0 °C 1024.6 hPa NNW 16.1 km/h 32.2 km/h 84 % 0.0 mm
15:37 1.4 °C -0.8 °C 1024.6 hPa North 14.5 km/h 32.2 km/h 85 % 0.0 mm
15:42 1.4 °C -0.8 °C 1024.6 hPa NNW 17.7 km/h 30.6 km/h 85 % 0.0 mm
15:47 1.3 °C -1.1 °C 1024.6 hPa NW 8.0 km/h 30.6 km/h 84 % 0.0 mm
15:57 1.3 °C -1.1 °C 1024.6 hPa North 12.9 km/h 29.0 km/h 84 % 0.0 mm
16:12 1.2 °C -1.2 °C 1024.9 hPa NW 14.5 km/h 29.0 km/h 84 % 0.0 mm
16:32 1.0 °C -1.2 °C 1024.9 hPa North 19.3 km/h 27.4 km/h 85 % 0.0 mm
16:37 0.9 °C -1.3 °C 1024.9 hPa NNE 8.0 km/h 27.4 km/h 85 % 0.0 mm
16:47 0.7 °C -1.4 °C 1025.3 hPa NNE 3.2 km/h 30.6 km/h 86 % 0.0 mm
16:52 0.5 °C -1.6 °C 1025.3 hPa North 12.9 km/h 24.1 km/h 86 % 0.0 mm
17:02 0.3 °C -1.6 °C 1025.3 hPa North 11.3 km/h 20.9 km/h 87 % 0.0 mm
17:12 0.2 °C -1.6 °C 1024.9 hPa NNW 4.8 km/h 17.7 km/h 88 % 0.0 mm
17:17 0.1 °C -1.7 °C 1025.3 hPa North 8.0 km/h 17.7 km/h 88 % 0.0 mm
17:27 0.1 °C -1.7 °C 1025.3 hPa NNW 14.5 km/h 16.1 km/h 88 % 0.0 mm
17:32 0.1 °C -1.7 °C 1025.3 hPa NNW 6.4 km/h 16.1 km/h 88 % 0.0 mm
17:47 0.0 °C -1.6 °C 1025.3 hPa NNW 3.2 km/h 17.7 km/h 89 % 0.0 mm
17:52 -0.1 °C -1.7 °C 1025.3 hPa NNW 6.4 km/h 17.7 km/h 89 % 0.0 mm
17:57 -0.1 °C -1.7 °C 1025.3 hPa North 8.0 km/h 17.7 km/h 89 % 0.0 mm
18:02 -0.1 °C -1.5 °C 1025.3 hPa NW 6.4 km/h 19.3 km/h 90 % 0.0 mm
18:12 -0.1 °C -1.7 °C 1025.3 hPa NNE 6.4 km/h 17.7 km/h 89 % 0.0 mm
18:17 -0.2 °C -1.8 °C 1025.6 hPa NNW 3.2 km/h 16.1 km/h 89 % 0.0 mm
18:22 -0.2 °C -1.6 °C 1025.6 hPa NNW 4.8 km/h 14.5 km/h 90 % 0.0 mm
18:32 -0.3 °C -1.7 °C 1026.0 hPa NNW 9.7 km/h 14.5 km/h 90 % 0.0 mm
18:42 -0.4 °C -1.8 °C 1026.0 hPa NW 9.7 km/h 16.1 km/h 90 % 0.0 mm
18:47 -0.4 °C -1.8 °C 1026.0 hPa NNE 8.0 km/h 16.1 km/h 90 % 0.0 mm
18:52 -0.4 °C -1.8 °C 1026.0 hPa North 11.3 km/h 17.7 km/h 90 % 0.0 mm
18:57 -0.4 °C -1.8 °C 1026.0 hPa North 9.7 km/h 17.7 km/h 90 % 0.0 mm
19:02 -0.5 °C -1.8 °C 1026.3 hPa NNW 6.4 km/h 19.3 km/h 91 % 0.0 mm
19:07 -0.6 °C -1.9 °C 1026.3 hPa North 8.0 km/h 19.3 km/h 91 % 0.0 mm
19:12 -0.6 °C -1.9 °C 1026.3 hPa NNW 8.0 km/h 20.9 km/h 91 % 0.0 mm
19:17 -0.6 °C -1.9 °C 1026.6 hPa North 8.0 km/h 20.9 km/h 91 % 0.0 mm
19:22 -0.6 °C -1.9 °C 1026.6 hPa NNW 11.3 km/h 19.3 km/h 91 % 0.0 mm
19:32 -0.6 °C -1.9 °C 1026.6 hPa NW 8.0 km/h 22.5 km/h 91 % 0.0 mm
19:37 -0.7 °C -2.0 °C 1026.6 hPa North 11.3 km/h 22.5 km/h 91 % 0.0 mm
19:42 -0.7 °C -2.0 °C 1026.6 hPa NE 16.1 km/h 22.5 km/h 91 % 0.0 mm
19:52 -0.7 °C -2.0 °C 1027.0 hPa NNW 9.7 km/h 25.7 km/h 91 % 0.0 mm
19:57 -0.7 °C -2.0 °C 1027.0 hPa NNW 8.0 km/h 25.7 km/h 91 % 0.0 mm
20:02 -0.7 °C -2.0 °C 1027.0 hPa NNW 8.0 km/h 25.7 km/h 91 % 0.0 mm
20:12 -0.7 °C -2.0 °C 1027.0 hPa NNE 8.0 km/h 20.9 km/h 91 % 0.0 mm
20:17 -0.7 °C -2.0 °C 1027.0 hPa NNE 6.4 km/h 25.7 km/h 91 % 0.0 mm
20:22 -0.7 °C -2.0 °C 1027.3 hPa NNE 6.4 km/h 25.7 km/h 91 % 0.0 mm
20:37 -0.7 °C -1.8 °C 1027.3 hPa NE 8.0 km/h 19.3 km/h 92 % 0.0 mm
20:42 -0.7 °C -1.8 °C 1027.3 hPa NE 19.3 km/h 20.9 km/h 92 % 0.0 mm
20:47 -0.7 °C -1.8 °C 1027.3 hPa North 16.1 km/h 25.7 km/h 92 % 0.0 mm
20:52 -0.7 °C -1.8 °C 1027.3 hPa NNE 11.3 km/h 27.4 km/h 92 % 0.0 mm
21:02 -0.6 °C -1.7 °C 1027.3 hPa NNE 11.3 km/h 27.4 km/h 92 % 0.0 mm
21:07 -0.6 °C -1.7 °C 1027.3 hPa NNE 4.8 km/h 27.4 km/h 92 % 0.0 mm
21:12 -0.6 °C -1.7 °C 1027.3 hPa West 8.0 km/h 24.1 km/h 92 % 0.0 mm
21:17 -0.6 °C -1.7 °C 1027.7 hPa North 8.0 km/h 24.1 km/h 92 % 0.0 mm
21:27 -0.6 °C -1.7 °C 1027.7 hPa North 9.7 km/h 24.1 km/h 92 % 0.0 mm
21:42 -0.6 °C -1.7 °C 1027.3 hPa NNE 11.3 km/h 22.5 km/h 92 % 0.0 mm
21:57 -0.6 °C -1.7 °C 1027.7 hPa North 4.8 km/h 20.9 km/h 92 % 0.0 mm
22:02 -0.6 °C -1.7 °C 1027.7 hPa NE 3.2 km/h 19.3 km/h 92 % 0.0 mm
22:12 -0.6 °C -1.7 °C 1027.7 hPa NNW 6.4 km/h 17.7 km/h 92 % 0.0 mm
22:17 -0.6 °C -1.9 °C 1027.7 hPa North 3.2 km/h 17.7 km/h 91 % 0.0 mm
22:22 -0.6 °C -1.7 °C 1027.7 hPa NE 3.2 km/h 17.7 km/h 92 % 0.0 mm
22:27 -0.6 °C -1.7 °C 1027.7 hPa NNW 6.4 km/h 16.1 km/h 92 % 0.0 mm
22:32 -0.6 °C -1.7 °C 1027.7 hPa NNW 9.7 km/h 24.1 km/h 92 % 0.0 mm
22:37 -0.6 °C -1.7 °C 1028.0 hPa NNW 6.4 km/h 24.1 km/h 92 % 0.0 mm
22:42 -0.6 °C -1.7 °C 1028.0 hPa NNW 8.0 km/h 24.1 km/h 92 % 0.0 mm
22:47 -0.6 °C -1.7 °C 1028.0 hPa NNW 6.4 km/h 16.1 km/h 92 % 0.0 mm
22:52 -0.7 °C -1.8 °C 1028.0 hPa NE 3.2 km/h 17.7 km/h 92 % 0.0 mm
22:57 -0.7 °C -1.8 °C 1028.0 hPa NNW 8.0 km/h 17.7 km/h 92 % 0.0 mm
23:12 -0.7 °C -1.8 °C 1028.0 hPa North 8.0 km/h 19.3 km/h 92 % 0.0 mm
23:17 -0.7 °C -1.8 °C 1028.0 hPa NNW 4.8 km/h 19.3 km/h 92 % 0.0 mm
23:22 -0.7 °C -1.8 °C 1028.0 hPa NNW 8.0 km/h 16.1 km/h 92 % 0.0 mm
23:27 -0.8 °C -1.9 °C 1028.0 hPa NNW 6.4 km/h 12.9 km/h 92 % 0.0 mm
23:37 -0.8 °C -1.9 °C 1028.0 hPa NNW 4.8 km/h 17.7 km/h 92 % 0.0 mm
23:42 -0.8 °C -1.9 °C 1028.0 hPa NNE 9.7 km/h 17.7 km/h 92 % 0.0 mm
23:47 -0.9 °C -2.0 °C 1028.0 hPa NNW 9.7 km/h 17.7 km/h 92 % 0.0 mm
23:57 -0.9 °C -2.0 °C 1028.0 hPa NNW 8.0 km/h 17.7 km/h 92 % 0.0 mm
Meteo18
Compliments of Weather Underground - 4 mb

Script developed by  Jim McMurry - jmcmurry@mwt.net Adapted for the template by  Wim van der Kuil - Leuven-Template.eu

You find our weather info also at:

European Weather Network

Weather Underground

Equipment we use:

Weather-station
Davis Vue

Weather-program
Meteohub

Weather-server
Raspberry PI 2 B+

Provider
1 and 1

Davis Vue

Meteohub

Raspberry PI 2 B+

1 and 1